createdAt,value
2019-06-07T00:02:24.332Z,13.56
2019-06-07T00:04:56.245Z,13.57
2019-06-07T00:07:26.587Z,13.54
2019-06-07T00:09:56.960Z,13.51
2019-06-07T00:12:27.080Z,13.46
2019-06-07T00:14:57.337Z,13.44
2019-06-07T00:17:27.801Z,13.39
2019-06-07T00:19:58.496Z,13.34
2019-06-07T00:22:33.145Z,13.31
2019-06-07T00:25:00.705Z,13.30
2019-06-07T00:27:30.926Z,13.30
2019-06-07T00:30:29.831Z,13.26
2019-06-07T00:32:32.855Z,13.24
2019-06-07T00:35:02.970Z,13.19
2019-06-07T00:37:33.212Z,13.17
2019-06-07T00:40:14.057Z,13.15
2019-06-07T00:42:35.014Z,13.12
2019-06-07T00:45:06.814Z,13.07
2019-06-07T00:47:37.207Z,13.10
2019-06-07T00:50:08.172Z,13.11
2019-06-07T00:55:14.330Z,13.09
2019-06-07T00:57:46.667Z,13.04
2019-06-07T01:00:22.317Z,13.01
2019-06-07T01:02:49.792Z,12.98
2019-06-07T01:05:28.979Z,12.92
2019-06-07T01:07:52.099Z,12.89
2019-06-07T01:10:50.178Z,12.85
2019-06-07T01:12:54.352Z,12.80
2019-06-07T01:15:28.823Z,12.75
2019-06-07T01:18:33.739Z,12.74
2019-06-07T01:20:29.399Z,12.76
2019-06-07T01:22:59.682Z,12.76
2019-06-07T01:25:29.775Z,12.75
2019-06-07T01:27:59.741Z,12.71
2019-06-07T01:30:30.246Z,12.65
2019-06-07T01:33:00.489Z,12.64
2019-06-07T01:35:30.891Z,12.62
2019-06-07T01:38:01.096Z,12.60
2019-06-07T01:40:32.976Z,12.61
2019-06-07T01:43:06.381Z,12.59
2019-06-07T01:45:36.521Z,12.57
2019-06-07T01:48:06.861Z,12.57
2019-06-07T01:50:37.224Z,12.55
2019-06-07T01:53:07.232Z,12.53
2019-06-07T01:55:37.475Z,12.54
2019-06-07T01:58:07.709Z,12.49
2019-06-07T02:00:37.952Z,12.44
2019-06-07T02:03:08.313Z,12.42
2019-06-07T02:05:38.557Z,12.41
2019-06-07T02:08:11.433Z,12.43
2019-06-07T02:10:41.435Z,12.42
2019-06-07T02:13:11.443Z,12.44
2019-06-07T02:15:41.441Z,12.42
2019-06-07T02:18:11.499Z,12.40
2019-06-07T02:20:41.561Z,12.44
2019-06-07T02:23:11.567Z,12.44
2019-06-07T02:25:48.597Z,12.42
2019-06-07T02:28:27.245Z,12.42
2019-06-07T02:30:58.343Z,12.45
2019-06-07T02:33:17.378Z,12.47
2019-06-07T02:35:47.485Z,12.46
2019-06-07T02:38:17.697Z,12.45
2019-06-07T02:40:47.813Z,12.47
2019-06-07T02:43:17.952Z,12.44
2019-06-07T02:45:48.324Z,12.45
2019-06-07T02:48:18.429Z,12.47
2019-06-07T02:50:53.122Z,12.47
2019-06-07T02:53:25.161Z,12.45
2019-06-07T02:56:35.027Z,12.44
2019-06-07T02:58:31.923Z,12.42
2019-06-07T03:01:07.406Z,12.39
2019-06-07T03:03:33.723Z,12.38
2019-06-07T03:06:03.914Z,12.35
2019-06-07T03:08:36.727Z,12.33
2019-06-07T03:11:08.820Z,12.30
2019-06-07T03:13:41.262Z,12.26
2019-06-07T03:16:14.032Z,12.20
2019-06-07T03:18:57.787Z,12.16
2019-06-07T03:21:33.880Z,12.14
2019-06-07T03:24:05.396Z,12.11
2019-06-07T03:27:30.403Z,12.07
2019-06-07T03:29:09.229Z,12.03
2019-06-07T03:31:46.658Z,12.04
2019-06-07T03:34:12.469Z,12.04
2019-06-07T03:36:43.872Z,12.05
2019-06-07T03:39:14.712Z,12.03
2019-06-07T03:42:04.567Z,12.05
2019-06-07T03:44:17.976Z,12.06
2019-06-07T03:46:48.677Z,12.05
2019-06-07T03:49:19.642Z,12.08
2019-06-07T03:51:50.855Z,12.08
2019-06-07T03:54:21.924Z,12.11
2019-06-07T03:56:52.647Z,12.10
2019-06-07T03:59:23.653Z,12.10
2019-06-07T04:01:54.696Z,12.14
2019-06-07T04:04:26.010Z,12.18
2019-06-07T04:06:56.972Z,12.21
2019-06-07T04:09:28.871Z,12.26
2019-06-07T04:12:00.454Z,12.34
2019-06-07T04:14:32.841Z,12.40
2019-06-07T04:17:03.916Z,12.48
2019-06-07T04:19:39.476Z,12.54
2019-06-07T04:22:07.834Z,12.63
2019-06-07T04:24:41.841Z,12.72
2019-06-07T04:27:11.409Z,12.85
2019-06-07T04:30:05.363Z,12.95
2019-06-07T04:32:15.118Z,13.04
2019-06-07T04:34:46.313Z,13.11
2019-06-07T04:37:17.428Z,13.23
2019-06-07T04:39:48.474Z,13.35
2019-06-07T04:42:21.162Z,13.44
2019-06-07T04:44:55.336Z,13.50
2019-06-07T04:47:29.650Z,13.57
2019-06-07T04:50:01.837Z,13.64
2019-06-07T04:52:36.015Z,13.69
2019-06-07T04:55:07.449Z,13.76
2019-06-07T04:57:42.295Z,13.85
2019-06-07T05:00:46.326Z,13.93
2019-06-07T05:39:20.915Z,16.81
2019-06-07T05:41:51.545Z,16.82
2019-06-07T05:44:22.120Z,16.69
2019-06-07T05:46:52.728Z,16.68
2019-06-07T05:49:23.440Z,16.80
2019-06-07T05:51:53.967Z,16.84
2019-06-07T05:54:24.525Z,16.68
2019-06-07T05:56:55.303Z,16.61
2019-06-07T05:59:25.669Z,16.58
2019-06-07T06:02:03.056Z,16.56
2019-06-07T06:04:28.375Z,16.52
2019-06-07T06:07:05.122Z,16.43
2019-06-07T06:09:36.461Z,16.47
2019-06-07T06:12:07.617Z,16.48
2019-06-07T06:14:40.957Z,16.42
2019-06-07T06:17:10.917Z,16.30
2019-06-07T06:19:47.443Z,16.42
2019-06-07T06:22:13.870Z,16.57
2019-06-07T06:25:16.661Z,16.68
2019-06-07T06:28:02.185Z,16.69
2019-06-07T06:29:50.291Z,16.68
2019-06-07T06:34:55.671Z,16.63
2019-06-07T06:37:25.913Z,16.68
2019-06-07T06:39:56.476Z,16.65
2019-06-07T06:42:27.440Z,16.66
2019-06-07T06:44:57.936Z,16.89
2019-06-07T06:47:28.401Z,17.07
2019-06-07T06:49:59.363Z,16.97
2019-06-07T06:52:29.725Z,17.11
2019-06-07T06:55:01.242Z,17.18
2019-06-07T06:57:32.128Z,17.36
2019-06-07T07:00:02.613Z,17.40
2019-06-07T07:02:33.456Z,17.42
2019-06-07T07:05:05.738Z,17.50
2019-06-07T07:07:37.068Z,17.57
2019-06-07T07:10:09.389Z,17.63
2019-06-07T07:12:40.615Z,17.69
2019-06-07T07:15:18.880Z,17.62
2019-06-07T07:18:03.724Z,17.68
2019-06-07T07:20:21.854Z,17.71
2019-06-07T07:22:56.450Z,17.68
2019-06-07T07:25:24.709Z,17.90
2019-06-07T07:27:55.490Z,18.20
2019-06-07T07:30:43.142Z,18.36
2019-06-07T07:33:14.395Z,18.43
2019-06-07T07:36:09.514Z,18.54
2019-06-07T07:38:17.976Z,18.55
2019-06-07T07:41:07.668Z,18.70
2019-06-07T07:43:21.768Z,18.67
2019-06-07T07:45:59.141Z,18.67
2019-06-07T07:48:24.891Z,18.75
2019-06-07T07:51:00.392Z,18.96
2019-06-07T07:53:45.431Z,19.18
2019-06-07T07:56:00.725Z,19.34
2019-06-07T07:58:31.385Z,19.25
2019-06-07T08:01:10.152Z,19.39
2019-06-07T08:03:33.982Z,19.60
2019-06-07T08:06:04.818Z,19.73
2019-06-07T08:08:35.236Z,19.71
2019-06-07T08:11:05.686Z,19.67
2019-06-07T08:13:37.411Z,19.64
2019-06-07T08:16:14.983Z,19.69
2019-06-07T08:18:40.638Z,19.71
2019-06-07T08:21:24.384Z,19.64
2019-06-07T08:23:43.590Z,19.73
2019-06-07T08:26:14.120Z,19.88
2019-06-07T08:28:44.828Z,20.03
2019-06-07T08:31:15.393Z,20.23
2019-06-07T08:33:45.681Z,20.25
2019-06-07T08:36:25.235Z,20.33
2019-06-07T08:38:54.318Z,20.38
2019-06-07T08:41:20.923Z,20.50
2019-06-07T08:43:53.222Z,20.59
2019-06-07T08:46:23.454Z,20.64
2019-06-07T08:48:55.981Z,20.81
2019-06-07T08:51:26.243Z,21.22
2019-06-07T08:54:18.772Z,21.22
2019-06-07T08:56:28.971Z,21.31
2019-06-07T08:59:02.995Z,21.38
2019-06-07T09:01:31.737Z,21.55
2019-06-07T09:04:07.746Z,21.56
2019-06-07T09:07:02.644Z,21.74
2019-06-07T09:09:09.536Z,21.95
2019-06-07T09:11:40.030Z,22.28
2019-06-07T09:14:10.795Z,22.52
2019-06-07T09:16:41.386Z,22.87
2019-06-07T09:19:11.708Z,23.27
2019-06-07T09:21:42.129Z,23.54
2019-06-07T09:24:12.927Z,23.66
2019-06-07T09:26:43.697Z,23.47
2019-06-07T09:29:15.002Z,23.40
2019-06-07T09:31:53.830Z,23.53
2019-06-07T09:34:18.086Z,23.70
2019-06-07T09:36:48.491Z,23.74
2019-06-07T09:39:19.162Z,23.89
2019-06-07T09:41:50.522Z,24.17
2019-06-07T09:44:26.011Z,24.35
2019-06-07T09:47:14.227Z,24.59
2019-06-07T09:49:32.044Z,24.50
2019-06-07T09:51:59.740Z,24.53
2019-06-07T09:55:03.933Z,24.66
2019-06-07T09:57:04.661Z,24.70
2019-06-07T09:59:34.105Z,24.82
2019-06-07T10:02:08.222Z,24.83
2019-06-07T10:04:36.838Z,24.90
2019-06-07T10:07:17.408Z,24.80
2019-06-07T10:10:09.909Z,24.85
2019-06-07T10:12:12.016Z,24.72
2019-06-07T10:14:45.129Z,24.75
2019-06-07T10:17:15.012Z,24.68
2019-06-07T10:19:45.713Z,24.66
2019-06-07T10:22:16.233Z,24.61
2019-06-07T10:24:47.157Z,24.84
2019-06-07T10:27:17.996Z,25.06
2019-06-07T10:29:48.480Z,25.06
2019-06-07T10:32:19.198Z,25.02
2019-06-07T10:34:49.933Z,25.09
2019-06-07T10:37:20.787Z,25.16
2019-06-07T10:39:51.410Z,25.15
2019-06-07T10:42:22.333Z,25.15
2019-06-07T10:44:52.814Z,25.19
2019-06-07T10:47:23.888Z,25.18
2019-06-07T10:49:54.304Z,25.21
2019-06-07T10:52:25.091Z,25.26
2019-06-07T10:54:56.420Z,25.18
2019-06-07T10:57:26.932Z,25.15
2019-06-07T10:59:57.616Z,25.24
2019-06-07T11:02:28.100Z,25.40
2019-06-07T11:04:59.066Z,25.56
2019-06-07T11:07:29.953Z,25.58
2019-06-07T11:10:07.104Z,25.67
2019-06-07T11:12:32.785Z,25.76
2019-06-07T11:15:04.493Z,25.96
2019-06-07T11:17:34.849Z,26.15
2019-06-07T11:20:08.467Z,26.17
2019-06-07T11:22:39.326Z,26.29
2019-06-07T11:25:11.203Z,26.39
2019-06-07T11:27:42.394Z,25.87
2019-06-07T11:30:14.566Z,26.27
2019-06-07T11:32:45.039Z,26.45
2019-06-07T11:35:16.739Z,26.66
2019-06-07T11:37:47.240Z,26.77
2019-06-07T11:40:34.421Z,26.87
2019-06-07T11:42:52.744Z,26.80
2019-06-07T11:45:23.139Z,27.20
2019-06-07T11:47:54.166Z,27.34
2019-06-07T11:50:24.935Z,27.60
2019-06-07T11:52:55.894Z,27.86
2019-06-07T11:55:26.574Z,27.95
2019-06-07T11:57:57.057Z,27.99
2019-06-07T12:00:27.899Z,28.26
2019-06-07T12:02:58.429Z,28.34
2019-06-07T12:05:29.112Z,27.91
2019-06-07T12:08:00.066Z,28.09
2019-06-07T12:10:42.038Z,28.00
2019-06-07T12:13:03.071Z,27.65
2019-06-07T12:15:33.785Z,27.66
2019-06-07T12:18:04.390Z,27.38
2019-06-07T12:20:34.890Z,27.32
2019-06-07T12:23:05.860Z,27.12
2019-06-07T12:25:36.240Z,27.04
2019-06-07T12:28:06.917Z,26.83
2019-06-07T12:30:37.333Z,26.91
2019-06-07T12:33:07.636Z,27.03
2019-06-07T12:35:38.180Z,27.30
2019-06-07T12:38:08.601Z,27.36
2019-06-07T12:40:39.804Z,27.27
2019-06-07T12:43:10.533Z,27.09
2019-06-07T12:45:45.228Z,26.99
2019-06-07T12:48:17.623Z,27.10
2019-06-07T12:50:46.096Z,27.27
2019-06-07T12:53:17.855Z,27.32
2019-06-07T12:55:48.699Z,27.07
2019-06-07T12:58:27.202Z,26.71
2019-06-07T13:00:51.341Z,26.65
2019-06-07T13:03:22.603Z,26.48
2019-06-07T13:05:53.263Z,26.50
2019-06-07T13:08:24.002Z,26.50
2019-06-07T13:10:54.723Z,26.64
2019-06-07T13:13:25.548Z,26.63
2019-06-07T13:15:56.036Z,26.41
2019-06-07T13:18:26.662Z,26.19
2019-06-07T13:20:57.720Z,26.04
2019-06-07T13:23:28.975Z,25.94
2019-06-07T13:25:59.691Z,25.79
2019-06-07T13:28:30.356Z,25.49
2019-06-07T13:31:00.721Z,25.41
2019-06-07T13:33:37.405Z,25.20
2019-06-07T13:36:03.856Z,24.95
2019-06-07T13:38:34.809Z,24.17
2019-06-07T13:41:05.411Z,23.73
2019-06-07T13:43:35.942Z,22.18
2019-06-07T13:46:06.852Z,21.02
2019-06-07T13:48:37.826Z,20.16
2019-06-07T13:51:08.535Z,19.85
2019-06-07T13:53:39.152Z,19.42
2019-06-07T13:56:10.094Z,19.21
2019-06-07T13:58:40.620Z,19.33
2019-06-07T14:01:11.547Z,19.15
2019-06-07T14:03:42.064Z,18.91
2019-06-07T14:06:12.631Z,19.20
2019-06-07T14:08:43.390Z,19.25
2019-06-07T14:11:14.108Z,19.50
2019-06-07T14:13:44.426Z,19.12
2019-06-07T14:16:15.427Z,19.51
2019-06-07T14:18:45.829Z,18.98
2019-06-07T14:21:16.591Z,18.87
2019-06-07T14:23:49.293Z,19.03
2019-06-07T14:26:19.245Z,19.58
2019-06-07T14:28:49.837Z,19.45
2019-06-07T14:31:22.079Z,18.94
2019-06-07T14:33:52.604Z,18.93
2019-06-07T14:36:24.685Z,18.09
2019-06-07T14:38:55.384Z,18.39
2019-06-07T14:41:27.103Z,18.45
2019-06-07T14:43:57.945Z,18.34
2019-06-07T14:46:30.151Z,18.05
2019-06-07T14:49:00.772Z,18.13
2019-06-07T14:51:33.321Z,17.84
2019-06-07T14:54:03.433Z,17.50
2019-06-07T14:56:35.303Z,17.64
2019-06-07T14:59:06.235Z,17.38
2019-06-07T15:01:36.903Z,17.57
2019-06-07T15:04:07.675Z,17.67
2019-06-07T15:06:38.972Z,17.88
2019-06-07T15:09:10.310Z,17.74
2019-06-07T15:11:41.280Z,17.60
2019-06-07T15:14:12.128Z,17.69
2019-06-07T15:16:42.790Z,17.92
2019-06-07T15:19:13.395Z,17.90
2019-06-07T15:21:43.996Z,17.85
2019-06-07T15:24:14.599Z,17.72
2019-06-07T15:26:45.113Z,17.60
2019-06-07T15:29:15.801Z,17.16
2019-06-07T15:31:46.520Z,17.01
2019-06-07T15:34:17.263Z,16.82
2019-06-07T15:36:47.964Z,16.89
2019-06-07T15:39:18.726Z,17.03
2019-06-07T15:41:49.534Z,16.99
2019-06-07T15:44:20.371Z,16.98
2019-06-07T15:46:51.124Z,16.97
2019-06-07T15:49:22.170Z,17.08
2019-06-07T15:51:52.543Z,17.15
2019-06-07T15:54:23.146Z,17.16
2019-06-07T15:56:53.672Z,17.29
2019-06-07T15:59:24.146Z,17.30
2019-06-07T16:01:54.832Z,17.27
2019-06-07T16:04:25.068Z,17.22
2019-06-07T16:06:55.665Z,17.19
2019-06-07T16:09:26.321Z,17.11
2019-06-07T16:11:56.875Z,17.16
2019-06-07T16:14:27.497Z,17.17
2019-06-07T16:16:58.440Z,17.14
2019-06-07T16:19:29.284Z,17.11
2019-06-07T16:22:00.119Z,17.03
2019-06-07T16:24:30.537Z,16.93
2019-06-07T16:27:01.203Z,16.64
2019-06-07T16:29:31.572Z,16.56
2019-06-07T16:32:02.044Z,16.28
2019-06-07T16:34:32.700Z,16.37
2019-06-07T16:37:03.618Z,16.26
2019-06-07T16:39:34.206Z,16.21
2019-06-07T16:42:05.049Z,16.16
2019-06-07T16:44:36.430Z,16.29
2019-06-07T16:47:07.332Z,16.10
2019-06-07T16:49:38.713Z,16.08
2019-06-07T16:52:09.375Z,16.22
2019-06-07T16:54:41.476Z,16.15
2019-06-07T16:57:12.057Z,16.18
2019-06-07T16:59:44.377Z,16.17
2019-06-07T17:02:14.459Z,16.13
2019-06-07T17:04:45.663Z,16.05
2019-06-07T17:07:16.613Z,16.21
2019-06-07T17:09:47.740Z,16.28
2019-06-07T17:12:19.107Z,16.34
2019-06-07T17:14:49.589Z,16.41
2019-06-07T17:17:20.557Z,16.54
2019-06-07T17:19:51.165Z,16.66
2019-06-07T17:22:21.820Z,16.73
2019-06-07T17:24:52.356Z,16.73
2019-06-07T17:27:23.082Z,16.71
2019-06-07T17:29:53.610Z,16.78
2019-06-07T17:32:23.974Z,16.78
2019-06-07T17:34:54.770Z,16.74
2019-06-07T17:37:25.369Z,16.70
2019-06-07T17:39:56.092Z,16.86
2019-06-07T17:42:27.075Z,16.86
2019-06-07T17:44:57.774Z,16.83
2019-06-07T17:47:28.428Z,17.03
2019-06-07T17:49:59.337Z,18.31
2019-06-07T17:52:30.298Z,19.56
2019-06-07T17:55:00.659Z,20.39
2019-06-07T17:57:31.150Z,21.15
2019-06-07T18:00:27.164Z,21.81
2019-06-07T18:02:34.294Z,22.20
2019-06-07T18:05:05.586Z,22.23
2019-06-07T18:07:37.279Z,22.33
2019-06-07T18:10:11.229Z,22.44
2019-06-07T18:12:41.712Z,21.33
2019-06-07T18:15:14.153Z,21.07
2019-06-07T18:17:44.756Z,20.58
2019-06-07T18:20:15.599Z,20.02
2019-06-07T18:22:47.048Z,19.48
2019-06-07T18:25:18.132Z,19.03
2019-06-07T18:27:48.572Z,18.70
2019-06-07T18:30:19.403Z,18.58
2019-06-07T18:32:50.808Z,18.26
2019-06-07T18:35:21.330Z,18.02
2019-06-07T18:37:53.084Z,17.88
2019-06-07T18:40:23.848Z,17.34
2019-06-07T18:42:55.241Z,17.52
2019-06-07T18:45:26.251Z,17.54
2019-06-07T18:47:57.758Z,17.48
2019-06-07T18:50:28.578Z,17.42
2019-06-07T18:52:59.113Z,17.55
2019-06-07T18:55:29.980Z,17.61
2019-06-07T18:58:00.539Z,17.64
2019-06-07T19:00:31.424Z,17.63
2019-06-07T19:03:02.145Z,17.71
2019-06-07T19:05:32.431Z,17.56
2019-06-07T19:08:03.129Z,17.52
2019-06-07T19:10:33.830Z,17.65
2019-06-07T19:13:04.368Z,17.62
2019-06-07T19:15:35.035Z,17.61
2019-06-07T19:18:05.637Z,17.59
2019-06-07T19:20:36.355Z,17.54
2019-06-07T19:23:07.234Z,17.51
2019-06-07T19:25:37.589Z,17.42
2019-06-07T19:28:08.284Z,17.42
2019-06-07T19:30:39.129Z,17.36
2019-06-07T19:33:09.881Z,17.33
2019-06-07T19:35:40.376Z,17.32
2019-06-07T19:38:11.108Z,17.31
2019-06-07T19:40:41.922Z,17.26
2019-06-07T19:43:12.617Z,17.18
2019-06-07T19:45:43.093Z,17.07
2019-06-07T19:48:13.142Z,17.16
2019-06-07T19:50:43.102Z,17.16
2019-06-07T19:53:13.263Z,17.20
2019-06-07T19:55:43.361Z,17.23
2019-06-07T19:58:13.821Z,17.29
2019-06-07T20:00:44.089Z,17.22
2019-06-07T20:03:14.213Z,17.09
2019-06-07T20:05:44.092Z,17.17
2019-06-07T20:08:14.221Z,17.22
2019-06-07T20:10:44.573Z,17.22
2019-06-07T20:13:14.578Z,17.26
2019-06-07T20:15:44.456Z,17.31
2019-06-07T20:18:14.579Z,17.19
2019-06-07T20:20:44.461Z,17.26
2019-06-07T20:23:14.592Z,17.13
2019-06-07T20:25:44.604Z,17.14
2019-06-07T20:28:14.611Z,17.22
2019-06-07T20:30:44.708Z,17.20
2019-06-07T20:33:14.586Z,17.23
2019-06-07T20:35:44.592Z,17.40
2019-06-07T20:38:14.602Z,17.36
2019-06-07T20:40:44.602Z,17.40
2019-06-07T20:43:14.714Z,17.36
2019-06-07T20:45:44.734Z,17.32
2019-06-07T20:48:14.601Z,17.38
2019-06-07T20:50:44.607Z,17.48
2019-06-07T20:53:14.607Z,17.39
2019-06-07T20:55:44.608Z,17.50
2019-06-07T20:58:14.617Z,17.48
2019-06-07T21:00:44.739Z,17.46
2019-06-07T21:03:14.741Z,17.53
2019-06-07T21:05:45.429Z,17.53
2019-06-07T21:08:15.343Z,17.46
2019-06-07T21:10:47.735Z,17.50
2019-06-07T21:13:17.986Z,17.35
2019-06-07T21:15:49.408Z,17.46
2019-06-07T21:18:20.227Z,17.34
2019-06-07T21:20:50.161Z,17.38
2019-06-07T21:23:20.267Z,17.16
2019-06-07T21:25:50.163Z,17.13
2019-06-07T21:28:20.241Z,17.14
2019-06-07T21:30:50.267Z,17.11
2019-06-07T21:33:20.273Z,17.18
2019-06-07T21:35:50.391Z,17.01
2019-06-07T21:38:20.271Z,17.01
2019-06-07T21:40:50.257Z,17.08
2019-06-07T21:43:20.160Z,17.11
2019-06-07T21:46:04.451Z,17.09
2019-06-07T21:48:21.840Z,17.12
2019-06-07T21:50:52.079Z,17.03
2019-06-07T21:53:22.092Z,17.03
2019-06-07T21:55:52.122Z,17.04
2019-06-07T21:58:22.795Z,17.03
2019-06-07T22:01:04.354Z,17.08
2019-06-07T22:03:34.209Z,17.07
2019-06-07T22:06:05.567Z,17.06
2019-06-07T22:08:35.538Z,17.09
2019-06-07T22:11:06.148Z,17.04
2019-06-07T22:13:36.257Z,17.06
2019-06-07T22:16:21.276Z,17.05
2019-06-07T22:18:37.939Z,17.05
2019-06-07T22:21:08.588Z,17.00
2019-06-07T22:23:38.548Z,16.93
2019-06-07T22:26:09.020Z,16.85
2019-06-07T22:28:39.156Z,16.75
2019-06-07T22:31:09.133Z,16.57
2019-06-07T22:33:39.184Z,16.55
2019-06-07T22:36:09.172Z,16.47
2019-06-07T22:38:39.169Z,16.42
2019-06-07T22:41:09.485Z,16.34
2019-06-07T22:43:39.423Z,16.41
2019-06-07T22:46:09.287Z,16.39
2019-06-07T22:48:39.177Z,16.46
2019-06-07T22:51:11.297Z,16.45
2019-06-07T22:53:44.563Z,16.40
2019-06-07T22:56:24.781Z,16.39
2019-06-07T22:58:54.649Z,16.31
2019-06-07T23:01:24.650Z,16.29
2019-06-07T23:03:54.652Z,16.22
2019-06-07T23:06:24.533Z,16.27
2019-06-07T23:08:58.855Z,16.23
2019-06-07T23:11:28.860Z,16.16
2019-06-07T23:13:58.746Z,16.10
2019-06-07T23:16:28.746Z,16.20
2019-06-07T23:18:58.634Z,16.13
2019-06-07T23:21:28.635Z,15.98
2019-06-07T23:23:58.641Z,16.04
2019-06-07T23:26:28.630Z,16.05
2019-06-07T23:28:58.512Z,16.03
2019-06-07T23:31:28.515Z,16.08
2019-06-07T23:33:58.527Z,16.19
2019-06-07T23:36:28.516Z,16.12
2019-06-07T23:38:58.534Z,16.10
2019-06-07T23:41:28.535Z,16.14
2019-06-07T23:43:58.733Z,16.09
2019-06-07T23:46:28.768Z,16.08
2019-06-07T23:48:58.764Z,16.16
2019-06-07T23:51:28.644Z,16.19
2019-06-07T23:53:58.531Z,16.01
2019-06-07T23:56:28.530Z,15.97
2019-06-07T23:58:58.423Z,15.88
